Time;durP1;ratioP1;P1;durP2;ratioP2;P2;SDS_P1;SDS_P2;PMS_P1;PMS_P2;Temp;Humidity;BMP_temperature;BMP_pressure;BME280_temperature;BME280_humidity;BME280_pressure;Samples;Min_cycle;Max_cycle;Signal;HPM_P1;HPM_P2
2022/11/10 00:01:54;;;;;;;93.60;54.85;;;;;;;7.61;82.30;100184.19;5080929;28;20036;-68
2022/11/10 00:04:20;;;;;;;85.85;52.75;;;;;;;7.43;82.72;100183.03;5059862;28;20028;-68
2022/11/10 00:06:46;;;;;;;98.70;53.03;;;;;;;7.36;83.68;100188.94;5093283;28;20028;-68
2022/11/10 00:09:12;;;;;;;91.25;52.50;;;;;;;7.42;82.82;100190.53;5091711;28;20384;-68
2022/11/10 00:11:37;;;;;;;93.95;52.78;;;;;;;7.17;83.98;100191.63;5092221;28;20035;-68
2022/11/10 00:17:05;;;;;;;90.38;53.25;;;;;;;7.41;83.13;100188.03;5092763;28;20177;-68
2022/11/10 00:19:32;;;;;;;88.07;52.47;;;;;;;7.44;82.68;100182.72;5073109;28;20549;-68
2022/11/10 00:21:59;;;;;;;85.72;50.80;;;;;;;7.53;82.13;100182.88;5092684;28;20111;-68
2022/11/10 00:24:25;;;;;;;83.30;48.28;;;;;;;7.66;81.52;100175.78;5091350;28;20406;-68
2022/11/10 00:26:51;;;;;;;88.03;50.42;;;;;;;7.66;80.69;100173.00;5092515;28;20028;-68
2022/11/10 00:29:16;;;;;;;86.90;51.33;;;;;;;7.52;81.72;100175.66;5092280;28;20519;-68
2022/11/10 00:31:42;;;;;;;89.47;52.80;;;;;;;7.45;82.12;100181.59;5092444;28;20028;-68
2022/11/10 00:34:11;;;;;;;88.63;52.85;;;;;;;7.56;81.87;100181.47;5088854;28;20521;-68
2022/11/10 00:36:37;;;;;;;84.93;51.67;;;;;;;7.60;81.63;100165.81;5074200;28;20028;-68
2022/11/10 00:39:02;;;;;;;82.82;48.53;;;;;;;7.75;81.12;100175.13;5092296;28;20781;-68
2022/11/10 00:41:28;;;;;;;79.97;48.50;;;;;;;7.89;80.05;100170.47;5092513;28;20510;-68
2022/11/10 00:43:54;;;;;;;84.20;48.92;;;;;;;8.04;79.28;100168.59;5072042;28;20020;-68
2022/11/10 00:46:19;;;;;;;82.28;47.10;;;;;;;8.11;79.00;100169.84;5076574;28;20133;-68
2022/11/10 00:48:45;;;;;;;83.07;48.85;;;;;;;8.17;78.61;100162.25;5091939;28;20410;-68
2022/11/10 00:51:22;;;;;;;79.55;48.15;;;;;;;8.25;78.06;100167.16;5082161;28;20028;-68
2022/11/10 00:53:48;;;;;;;80.93;47.85;;;;;;;8.23;77.58;100163.84;5078791;28;20058;-68
2022/11/10 00:56:14;;;;;;;81.50;49.72;;;;;;;8.10;78.07;100162.63;5091849;28;20028;-68
2022/11/10 00:58:39;;;;;;;79.18;47.72;;;;;;;8.08;78.71;100170.47;5091882;28;20023;-68
2022/11/10 01:01:05;;;;;;;84.90;49.58;;;;;;;8.10;77.65;100156.25;5073656;28;20048;-68
2022/11/10 01:03:32;;;;;;;78.68;47.78;;;;;;;8.16;77.92;100160.59;5073439;28;20104;-68
2022/11/10 01:05:58;;;;;;;84.25;48.35;;;;;;;8.26;76.73;100157.66;5055298;28;20033;-68
2022/11/10 01:08:23;;;;;;;80.55;47.97;;;;;;;8.23;76.74;100160.22;5072612;28;20017;-68
2022/11/10 01:10:49;;;;;;;81.80;47.22;;;;;;;8.27;76.38;100155.72;5071532;28;20029;-68
2022/11/10 01:13:15;;;;;;;77.88;46.55;;;;;;;8.25;76.28;100156.00;5076564;28;20415;-68
2022/11/10 01:15:41;;;;;;;79.82;48.88;;;;;;;8.29;75.88;100154.25;5075932;28;20032;-68
2022/11/10 01:18:08;;;;;;;82.47;46.78;;;;;;;8.35;75.75;100159.78;5070806;28;20017;-68
2022/11/10 01:20:34;;;;;;;77.72;46.33;;;;;;;8.42;75.67;100168.56;5071449;28;20028;-68
2022/11/10 01:23:00;;;;;;;82.18;48.30;;;;;;;8.33;75.87;100162.03;5066045;28;20479;-68
2022/11/10 01:25:25;;;;;;;85.15;47.47;;;;;;;8.25;75.81;100153.22;5071460;28;20142;-68
2022/11/10 01:27:51;;;;;;;84.60;49.08;;;;;;;8.28;76.45;100155.38;5070968;28;20021;-69
2022/11/10 01:30:17;;;;;;;83.63;47.33;;;;;;;8.28;76.09;100155.38;5053018;28;20153;-68
2022/11/10 01:32:43;;;;;;;88.78;49.33;;;;;;;8.33;76.06;100156.47;5084110;28;20042;-68
2022/11/10 01:35:09;;;;;;;77.07;48.05;;;;;;;8.33;75.99;100156.47;5053049;28;20115;-68
2022/11/10 01:37:34;;;;;;;80.93;47.95;;;;;;;8.34;75.95;100150.56;5071248;28;20089;-68
2022/11/10 01:40:00;;;;;;;88.35;47.28;;;;;;;8.34;75.84;100152.53;5071261;28;20036;-68
2022/11/10 01:42:36;;;;;;;79.18;45.13;;;;;;;8.33;75.61;100148.09;5071064;28;20542;-68
2022/11/10 01:45:23;;;;;;;76.80;47.38;;;;;;;8.26;75.34;100148.44;5088991;28;20108;-68
2022/11/10 01:47:55;;;;;;;78.30;47.22;;;;;;;8.29;74.26;100157.03;5091052;28;20052;-68
2022/11/10 01:50:25;;;;;;;71.63;43.80;;;;;;;8.25;74.22;100147.66;5073001;28;20073;-68
2022/11/10 01:52:54;;;;;;;83.13;46.63;;;;;;;8.17;74.24;100145.53;5090991;28;20442;-68
2022/11/10 01:55:21;;;;;;;82.82;46.08;;;;;;;8.19;74.33;100143.25;5079257;28;20032;-68
2022/11/10 01:57:47;;;;;;;78.38;46.80;;;;;;;8.16;74.44;100149.44;5052994;28;20115;-68
2022/11/10 02:00:13;;;;;;;78.05;46.50;;;;;;;8.16;75.07;100155.03;5070791;28;20507;-68
2022/11/10 02:02:49;;;;;;;75.45;45.63;;;;;;;8.12;75.33;100156.78;5053026;28;20032;-68
2022/11/10 02:05:15;;;;;;;80.60;46.20;;;;;;;8.14;75.29;100148.94;5052628;28;20032;-68
2022/11/10 02:07:41;;;;;;;79.53;46.67;;;;;;;8.16;74.86;100155.03;5070981;28;20082;-68
2022/11/10 02:10:13;;;;;;;75.93;44.20;;;;;;;8.18;73.74;100154.72;5052813;28;20070;-68
2022/11/10 02:12:39;;;;;;;71.78;45.85;;;;;;;8.15;74.48;100158.94;5052904;28;20138;-68
2022/11/10 02:15:08;;;;;;;72.75;46.78;;;;;;;8.09;75.19;100160.97;5088887;28;20076;-68
2022/11/10 02:17:34;;;;;;;87.30;45.30;;;;;;;8.02;75.02;100157.72;5072973;28;20047;-68
2022/11/10 02:20:03;;;;;;;72.78;44.85;;;;;;;7.99;75.61;100161.13;5091226;28;20559;-68
2022/11/10 02:22:29;;;;;;;79.63;46.90;;;;;;;7.99;76.33;100156.41;5090850;28;20039;-68
2022/11/10 02:24:56;;;;;;;78.43;45.30;;;;;;;8.04;76.73;100166.63;5086292;28;20027;-68
2022/11/10 02:27:21;;;;;;;78.32;48.65;;;;;;;7.98;77.25;100167.81;5090187;28;20402;-68
2022/11/10 02:29:46;;;;;;;72.55;46.45;;;;;;;7.98;77.25;100160.31;5091038;28;20020;-68
2022/11/10 02:32:12;;;;;;;86.57;46.13;;;;;;;7.96;77.51;100165.38;5094646;28;20077;-68
2022/11/10 02:34:37;;;;;;;79.50;46.47;;;;;;;7.97;77.39;100168.97;5070504;28;20028;-68
2022/11/10 02:37:03;;;;;;;80.43;48.60;;;;;;;7.90;77.47;100162.91;5056420;28;20024;-68
2022/11/10 02:39:29;;;;;;;80.00;51.15;;;;;;;7.91;78.11;100170.19;5062367;28;20024;-68
2022/11/10 02:41:54;;;;;;;84.50;49.10;;;;;;;7.72;78.48;100173.75;5076036;28;20059;-68
2022/11/10 02:44:20;;;;;;;79.40;47.38;;;;;;;7.73;78.66;100170.69;5092656;28;20482;-68
2022/11/10 02:46:46;;;;;;;72.63;45.17;;;;;;;7.74;78.56;100165.91;5076223;28;20418;-68
2022/11/10 02:49:11;;;;;;;70.72;42.63;;;;;;;7.71;78.69;100169.31;5094080;28;20031;-68
2022/11/10 02:51:37;;;;;;;64.05;41.13;;;;;;;7.69;78.25;100166.81;5094224;28;20028;-68
2022/11/10 02:54:05;;;;;;;62.13;40.00;;;;;;;7.57;78.18;100174.75;5094390;28;20024;-68
2022/11/10 02:56:30;;;;;;;59.40;39.05;;;;;;;7.63;78.33;100167.19;5066408;28;20482;-68
2022/11/10 02:58:56;;;;;;;59.45;36.70;;;;;;;7.69;78.34;100177.94;5075765;28;20119;-68
2022/11/10 03:01:21;;;;;;;64.55;41.28;;;;;;;7.72;77.91;100177.38;5093765;28;20111;-68
2022/11/10 03:03:47;;;;;;;67.65;43.97;;;;;;;7.75;77.56;100184.28;5094032;28;20028;-68
2022/11/10 03:06:12;;;;;;;71.43;47.00;;;;;;;7.67;77.28;100176.63;5092914;28;20101;-68
2022/11/10 03:08:38;;;;;;;63.83;42.90;;;;;;;7.77;76.30;100181.22;5091981;28;20020;-68
2022/11/10 03:11:04;;;;;;;62.35;40.22;;;;;;;7.80;75.20;100181.44;5075733;28;20055;-68
2022/11/10 03:13:29;;;;;;;57.65;39.35;;;;;;;7.77;75.46;100186.78;5083539;28;20024;-68
2022/11/10 03:15:55;;;;;;;50.40;34.38;;;;;;;7.84;74.21;100182.50;5087675;28;20036;-68
2022/11/10 03:18:21;;;;;;;57.05;35.67;;;;;;;7.76;73.51;100180.38;5093720;28;20114;-68
2022/11/10 03:20:47;;;;;;;56.92;36.45;;;;;;;7.63;73.53;100176.38;5093570;28;20020;-68
2022/11/10 03:23:13;;;;;;;55.58;35.10;;;;;;;7.49;73.53;100175.44;5075529;28;20542;-68
2022/11/10 03:25:39;;;;;;;50.08;34.15;;;;;;;7.45;73.38;100181.59;5092550;28;20028;-68
2022/11/10 03:28:04;;;;;;;50.58;33.38;;;;;;;7.42;73.61;100173.84;5075104;28;20020;-68
2022/11/10 03:30:30;;;;;;;43.47;30.25;;;;;;;7.33;74.07;100178.38;5093518;28;20020;-68
2022/11/10 03:32:55;;;;;;;38.60;28.42;;;;;;;7.29;73.55;100182.91;5075296;28;20337;-68
2022/11/10 03:35:21;;;;;;;42.50;29.95;;;;;;;7.22;73.52;100171.28;5083281;28;20032;-68
2022/11/10 03:37:46;;;;;;;42.20;32.10;;;;;;;7.21;74.47;100175.19;5055183;28;20073;-68
2022/11/10 03:40:12;;;;;;;47.67;30.85;;;;;;;7.15;74.12;100175.25;5073098;28;20039;-68
2022/11/10 03:42:45;;;;;;;40.83;31.02;;;;;;;7.13;74.91;100168.31;5074680;28;20025;-68
2022/11/10 03:45:12;;;;;;;38.90;29.20;;;;;;;7.10;75.23;100168.91;5091597;28;20032;-68
2022/11/10 03:47:37;;;;;;;43.90;29.13;;;;;;;7.22;74.18;100174.91;5093145;28;20024;-68
2022/11/10 03:50:03;;;;;;;43.58;30.77;;;;;;;7.20;73.55;100181.88;5074794;28;20431;-68
2022/11/10 03:52:29;;;;;;;45.67;30.80;;;;;;;7.09;73.79;100186.75;5093167;28;20115;-68
2022/11/10 03:54:54;;;;;;;43.65;31.73;;;;;;;7.12;73.56;100178.63;5091964;28;20035;-68
2022/11/10 03:57:20;;;;;;;50.88;30.50;;;;;;;7.08;73.88;100190.66;5093084;28;20054;-68
2022/11/10 03:59:45;;;;;;;51.97;33.90;;;;;;;7.04;73.36;100187.63;5092641;28;20040;-68
2022/11/10 04:02:11;;;;;;;42.42;31.13;;;;;;;6.85;73.91;100185.56;5074705;28;20521;-68
2022/11/10 04:10:04;;;;;;;48.97;31.35;;;;;;;6.54;74.06;100177.50;5088794;28;20144;-68
2022/11/10 04:18:19;;;;;;;42.40;29.58;;;;;;;6.60;73.65;100178.28;5072777;28;20054;-68
2022/11/10 04:20:43;;;;;;;42.53;30.27;;;;;;;6.50;73.96;100181.16;5072175;28;20485;-68
2022/11/10 04:23:27;;;;;;;45.05;30.35;;;;;;;6.42;73.90;100186.19;5072223;28;20024;-68
2022/11/10 04:28:42;;;;;;;40.97;29.08;;;;;;;6.52;73.33;100188.09;5092330;28;20022;-68
2022/11/10 04:31:08;;;;;;;38.00;27.60;;;;;;;6.51;73.22;100191.97;5092407;28;20032;-68
2022/11/10 04:33:34;;;;;;;41.28;28.67;;;;;;;6.50;73.22;100193.06;5092286;28;20409;-68
2022/11/10 04:36:00;;;;;;;42.42;28.67;;;;;;;6.48;72.97;100192.53;5091143;28;20028;-68
2022/11/10 04:38:25;;;;;;;43.63;28.02;;;;;;;6.32;74.00;100191.81;5072660;28;20067;-68
2022/11/10 04:40:51;;;;;;;37.92;26.75;;;;;;;6.27;74.52;100197.44;5074052;28;20493;-68
2022/11/10 04:43:16;;;;;;;35.80;26.92;;;;;;;6.30;74.86;100197.69;5092451;28;20028;-68
2022/11/10 04:45:42;;;;;;;37.70;27.85;;;;;;;6.36;74.75;100204.03;5069219;28;20495;-68
2022/11/10 04:48:08;;;;;;;42.00;28.35;;;;;;;6.32;74.74;100202.94;5053386;28;20021;-68
2022/11/10 04:50:34;;;;;;;42.30;29.10;;;;;;;6.26;75.04;100195.78;5090733;28;20032;-68
2022/11/10 04:52:59;;;;;;;42.63;27.65;;;;;;;6.27;74.33;100201.03;5091140;28;20069;-68
2022/11/10 04:55:25;;;;;;;52.03;30.65;;;;;;;6.27;73.62;100203.78;5072684;28;20031;-68
2022/11/10 04:57:50;;;;;;;56.65;31.27;;;;;;;6.16;74.69;100205.00;5091916;28;20081;-68
2022/11/10 05:00:16;;;;;;;48.78;32.08;;;;;;;6.18;74.91;100211.91;5091800;28;20105;-68
2022/11/10 05:02:41;;;;;;;62.08;34.00;;;;;;;6.18;74.78;100213.88;5090505;28;20050;-68
2022/11/10 05:05:07;;;;;;;53.95;32.05;;;;;;;6.18;74.37;100216.66;5085733;28;20032;-68
2022/11/10 05:07:33;;;;;;;62.38;34.78;;;;;;;6.20;74.33;100208.03;5070958;28;20024;-68
2022/11/10 05:09:58;;;;;;;59.72;33.85;;;;;;;6.14;74.48;100212.78;5089998;28;20040;-68
2022/11/10 05:12:24;;;;;;;66.78;33.50;;;;;;;6.21;74.40;100220.78;5073253;28;20024;-68
2022/11/10 05:14:49;;;;;;;69.72;34.90;;;;;;;6.28;73.43;100212.97;5090391;28;20042;-68
2022/11/10 05:17:14;;;;;;;81.20;34.17;;;;;;;6.13;73.85;100220.28;5073349;28;20399;-69
2022/11/10 05:19:40;;;;;;;68.03;33.13;;;;;;;6.10;73.95;100231.16;5091612;28;20406;-68
2022/11/10 05:22:06;;;;;;;69.43;36.47;;;;;;;6.13;73.90;100231.41;5091282;28;20438;-66
2022/11/10 05:24:32;;;;;;;68.18;35.42;;;;;;;6.26;73.34;100238.25;5090726;28;20074;-68
2022/11/10 05:26:58;;;;;;;70.47;33.05;;;;;;;6.37;73.13;100235.41;5082416;28;20414;-67
2022/11/10 05:29:24;;;;;;;80.13;32.00;;;;;;;6.34;72.34;100238.78;5065565;28;20035;-67
2022/11/10 05:31:49;;;;;;;71.18;32.85;;;;;;;6.31;72.23;100242.97;5090785;28;20410;-67
2022/11/10 05:34:14;;;;;;;69.32;33.58;;;;;;;6.28;72.32;100249.09;5072915;28;20043;-67
2022/11/10 05:36:40;;;;;;;71.75;31.63;;;;;;;6.29;73.18;100240.50;5081929;28;20078;-68
2022/11/10 05:39:06;;;;;;;65.35;32.50;;;;;;;6.32;73.22;100256.56;5091294;28;20081;-68
2022/11/10 05:41:31;;;;;;;54.58;31.88;;;;;;;6.36;72.74;100250.44;5091209;28;20024;-67
2022/11/10 05:43:56;;;;;;;51.55;33.00;;;;;;;6.39;72.49;100258.19;5091069;28;20066;-67
2022/11/10 05:46:22;;;;;;;52.20;31.13;;;;;;;6.45;72.83;100260.66;5082045;28;20031;-67
2022/11/10 05:48:48;;;;;;;59.75;34.70;;;;;;;6.48;72.37;100261.22;5090737;28;20122;-67
2022/11/10 05:51:13;;;;;;;58.33;33.90;;;;;;;6.45;72.92;100268.16;5091181;28;20418;-67
2022/11/10 05:53:38;;;;;;;53.67;34.75;;;;;;;6.48;73.61;100277.88;5069951;28;20036;-67
2022/11/10 05:56:04;;;;;;;65.65;34.67;;;;;;;6.51;73.83;100268.97;5074168;28;20040;-69
2022/11/10 05:58:30;;;;;;;63.65;32.83;;;;;;;6.60;73.98;100273.63;5070753;28;20021;-68
2022/11/10 06:00:56;;;;;;;66.05;35.50;;;;;;;6.69;73.80;100275.78;5052817;28;20110;-68
2022/11/10 06:03:21;;;;;;;63.15;36.20;;;;;;;6.67;74.46;100275.25;5077459;28;20024;-68
2022/11/10 06:05:47;;;;;;;64.30;38.70;;;;;;;6.82;74.87;100280.69;5087420;28;20510;-71
2022/11/10 06:08:12;;;;;;;65.63;36.17;;;;;;;6.74;75.49;100284.94;5094830;28;20028;-69
2022/11/10 06:10:38;;;;;;;68.15;36.70;;;;;;;6.79;75.59;100280.44;5094327;28;20027;-70
2022/11/10 06:13:04;;;;;;;64.13;36.78;;;;;;;6.82;76.67;100285.44;5068960;28;20028;-69
2022/11/10 06:15:30;;;;;;;90.25;47.05;;;;;;;6.88;76.47;100293.47;5082083;28;20024;-70
2022/11/10 06:17:56;;;;;;;107.38;48.35;;;;;;;6.96;76.21;100286.44;5086492;28;20488;-69
2022/11/10 06:20:22;;;;;;;102.72;50.45;;;;;;;7.07;76.04;100287.16;5076504;28;20019;-69
2022/11/10 06:23:00;;;;;;;117.18;54.47;;;;;;;7.24;75.52;100291.47;5093973;28;20032;-69
2022/11/10 06:25:27;;;;;;;110.07;54.25;;;;;;;7.27;75.68;100285.34;5089010;28;20417;-69
2022/11/10 06:27:52;;;;;;;117.22;57.33;;;;;;;7.29;75.58;100288.66;5089429;28;20020;-68
2022/11/10 06:30:18;;;;;;;105.43;52.78;;;;;;;7.28;75.51;100292.56;5091525;28;20031;-69
2022/11/10 06:32:44;;;;;;;82.60;46.42;;;;;;;7.21;76.04;100289.28;5088953;28;20034;-69
2022/11/10 06:35:10;;;;;;;83.95;44.58;;;;;;;7.25;75.78;100298.72;5087858;28;20478;-69
2022/11/10 06:37:37;;;;;;;72.10;41.53;;;;;;;7.42;75.28;100292.69;5090349;28;20031;-69
2022/11/10 06:40:05;;;;;;;75.18;42.60;;;;;;;7.63;75.68;100300.81;5076601;28;20028;-69
2022/11/10 06:42:31;;;;;;;77.32;41.63;;;;;;;7.77;75.44;100303.75;5067092;28;20032;-69
2022/11/10 06:44:56;;;;;;;91.43;42.22;;;;;;;7.91;75.31;100301.91;5059027;28;20024;-69
2022/11/10 06:47:21;;;;;;;74.47;43.97;;;;;;;7.90;75.53;100313.34;5080969;28;20057;-69
2022/11/10 06:49:47;;;;;;;66.40;44.22;;;;;;;7.90;76.23;100297.47;5059171;28;20486;-68
2022/11/10 06:52:12;;;;;;;63.65;38.50;;;;;;;8.06;75.65;100302.84;5064680;28;20054;-71
2022/11/10 06:54:38;;;;;;;78.72;38.53;;;;;;;8.21;74.94;100308.25;5079696;28;20043;-70
2022/11/10 06:57:03;;;;;;;67.63;37.38;;;;;;;8.32;74.93;100305.28;5102252;28;20050;-66
2022/11/10 06:59:29;;;;;;;55.50;35.15;;;;;;;8.15;76.70;100298.28;5081878;28;20032;-69
2022/11/10 07:01:54;;;;;;;65.22;39.42;;;;;;;8.27;76.80;100301.47;5071270;28;20036;-67
2022/11/10 07:04:20;;;;;;;61.63;36.33;;;;;;;8.13;78.72;100294.97;5072549;28;20494;-67
2022/11/10 07:06:46;;;;;;;62.00;39.33;;;;;;;8.22;78.76;100293.19;5077235;28;20403;-70
2022/11/10 07:09:12;;;;;;;60.03;37.50;;;;;;;8.46;77.67;100300.66;5083442;28;20058;-70
2022/11/10 07:11:37;;;;;;;56.03;36.17;;;;;;;8.53;77.73;100295.56;5091484;28;20483;-70
2022/11/10 07:14:03;;;;;;;58.97;38.40;;;;;;;8.66;76.73;100298.72;5090716;28;20036;-69
2022/11/10 07:16:28;;;;;;;65.22;38.17;;;;;;;8.80;77.20;100298.78;5080204;28;20103;-71
2022/11/10 07:18:53;;;;;;;55.28;38.85;;;;;;;8.89;77.89;100293.34;5071221;28;20539;-68
2022/11/10 07:21:19;;;;;;;56.72;37.67;;;;;;;8.96;77.61;100299.38;5082838;28;20032;-74
2022/11/10 07:23:45;;;;;;;58.85;38.17;;;;;;;8.98;78.87;100291.53;5089426;28;20036;-74
2022/11/10 07:26:11;;;;;;;66.43;39.33;;;;;;;8.78;80.81;100296.31;5065434;28;20032;-70
2022/11/10 07:28:37;;;;;;;71.78;41.92;;;;;;;8.92;81.87;100295.53;5075988;28;20032;-72
2022/11/10 07:31:03;;;;;;;81.68;42.40;;;;;;;8.80;82.43;100301.59;5085486;28;20036;-75
2022/11/10 07:33:28;;;;;;;67.00;43.15;;;;;;;8.74;82.64;100308.38;5085599;28;20032;-74
2022/11/10 07:35:56;;;;;;;63.67;42.63;;;;;;;8.88;83.02;100300.91;5067481;28;20085;-72
2022/11/10 07:38:22;;;;;;;66.22;43.55;;;;;;;8.89;83.29;100307.31;5078660;28;20036;-76
2022/11/10 07:40:52;;;;;;;68.88;44.63;;;;;;;8.96;83.57;100299.38;5089019;28;20032;-72
2022/11/10 07:43:19;;;;;;;65.47;44.20;;;;;;;9.11;83.95;100299.13;5088132;28;20497;-70
2022/11/10 07:45:45;;;;;;;72.57;45.35;;;;;;;9.16;83.69;100301.00;5083845;28;20101;-71
2022/11/10 07:48:11;;;;;;;67.30;45.25;;;;;;;9.22;84.08;100298.97;5070605;28;20487;-69
2022/11/10 07:50:36;;;;;;;70.32;45.85;;;;;;;9.40;84.06;100300.84;5079191;28;20391;-72
2022/11/10 07:53:22;;;;;;;79.20;46.92;;;;;;;9.68;83.33;100305.66;5083626;28;20032;-75
2022/11/10 07:55:47;;;;;;;73.18;46.40;;;;;;;9.83;82.36;100305.38;5085246;28;20040;-73
2022/11/10 07:58:16;;;;;;;71.15;46.05;;;;;;;9.68;82.90;100302.88;5070707;28;20051;-70
2022/11/10 08:00:42;;;;;;;75.75;47.58;;;;;;;9.96;82.67;100298.13;5070210;28;20043;-71
2022/11/10 08:03:14;;;;;;;76.65;46.45;;;;;;;10.28;80.79;100301.09;5074234;28;20115;-69
2022/11/10 08:05:40;;;;;;;73.50;48.50;;;;;;;10.12;80.14;100281.03;5060776;28;20028;-73
2022/11/10 08:08:06;;;;;;;70.35;45.03;;;;;;;10.46;79.45;100299.34;5067297;28;20016;-70
2022/11/10 08:10:33;;;;;;;71.22;46.53;;;;;;;10.72;77.12;100306.34;5056263;28;20495;-72
2022/11/10 08:13:00;;;;;;;71.70;44.60;;;;;;;10.90;76.16;100307.31;5082061;28;20024;-71
2022/11/10 08:15:28;;;;;;;71.95;44.67;;;;;;;10.97;76.23;100307.69;5081892;28;20104;-71
2022/11/10 08:18:01;;;;;;;71.38;47.67;;;;;;;10.87;77.86;100307.94;5084784;28;20441;-69
2022/11/10 08:20:27;;;;;;;71.97;46.25;;;;;;;10.94;77.97;100303.56;5085925;28;20023;-69
2022/11/10 08:23:04;;;;;;;69.65;45.10;;;;;;;10.95;77.97;100307.16;5070482;28;20426;-69
2022/11/10 08:25:32;;;;;;;67.90;45.63;;;;;;;11.16;76.56;100310.31;5060420;28;20020;-70
2022/11/10 08:28:05;;;;;;;74.60;46.20;;;;;;;11.29;76.31;100302.16;5075839;28;20032;-69
2022/11/10 08:30:31;;;;;;;73.22;44.55;;;;;;;11.41;75.95;100304.38;5052304;28;20037;-68
2022/11/10 08:32:58;;;;;;;100.75;64.40;;;;;;;11.62;75.01;100301.84;5070219;28;20058;-69
2022/11/10 08:35:25;;;;;;;78.05;44.80;;;;;;;11.63;75.09;100301.53;5069900;28;20024;-69
2022/11/10 08:37:51;;;;;;;63.80;40.35;;;;;;;11.54;74.31;100308.25;5082325;28;20024;-69
2022/11/10 08:40:18;;;;;;;60.05;40.08;;;;;;;11.61;72.84;100303.00;5087125;28;20398;-70
2022/11/10 08:42:44;;;;;;;61.10;39.15;;;;;;;11.84;71.31;100292.56;5072539;28;20025;-70
2022/11/10 08:45:10;;;;;;;68.43;39.90;;;;;;;12.15;71.11;100302.09;5084637;28;20082;-71
2022/11/10 08:47:35;;;;;;;61.55;38.75;;;;;;;12.00;70.30;100292.13;5053676;28;20024;-71
2022/11/10 08:50:01;;;;;;;65.47;39.05;;;;;;;12.11;70.67;100289.84;5086324;28;20491;-71
2022/11/10 08:52:26;;;;;;;52.95;35.80;;;;;;;12.24;69.31;100290.88;5091991;28;20024;-71
2022/11/10 08:54:52;;;;;;;59.17;35.60;;;;;;;12.25;69.06;100282.16;5076678;28;20452;-71
2022/11/10 08:57:17;;;;;;;53.53;35.58;;;;;;;12.54;68.28;100291.09;5079934;28;20025;-71
2022/11/10 08:59:43;;;;;;;58.45;38.13;;;;;;;12.75;67.13;100289.31;5091437;28;20067;-71
2022/11/10 09:02:11;;;;;;;52.20;35.85;;;;;;;12.90;65.90;100284.34;5089919;28;20082;-71
2022/11/10 09:04:36;;;;;;;57.10;34.70;;;;;;;12.82;66.06;100290.81;5087351;28;20084;-70
2022/11/10 09:07:05;;;;;;;60.13;36.83;;;;;;;13.03;65.65;100286.19;5081502;28;20107;-71
2022/11/10 09:09:30;;;;;;;54.55;35.05;;;;;;;13.26;64.79;100280.31;5088793;28;20028;-71
2022/11/10 09:11:56;;;;;;;53.72;34.13;;;;;;;13.49;64.59;100282.94;5073054;28;20028;-71
2022/11/10 09:14:21;;;;;;;51.72;35.42;;;;;;;13.38;64.62;100281.63;5088487;28;20032;-72
2022/11/10 09:16:47;;;;;;;63.13;37.10;;;;;;;13.64;64.83;100283.59;5078637;28;22057;-72
2022/11/10 09:19:12;;;;;;;56.08;36.03;;;;;;;13.70;63.48;100277.44;5076797;28;20028;-73
2022/11/10 09:21:38;;;;;;;53.05;34.33;;;;;;;13.82;63.23;100284.34;5073703;28;20020;-73
2022/11/10 09:24:03;;;;;;;55.45;36.05;;;;;;;13.78;63.71;100280.53;5078501;28;20029;-73
2022/11/10 09:26:30;;;;;;;59.15;34.15;;;;;;;13.65;62.74;100271.19;5081891;28;20020;-74
2022/11/10 09:28:56;;;;;;;59.30;34.95;;;;;;;13.76;62.55;100281.72;5059866;28;20128;-73
2022/11/10 09:31:21;;;;;;;134.00;72.68;;;;;;;13.96;63.41;100272.84;5071911;28;20024;-74
2022/11/10 09:33:47;;;;;;;70.00;44.92;;;;;;;14.12;62.52;100270.28;5057734;28;20028;-74
2022/11/10 09:36:12;;;;;;;58.72;36.65;;;;;;;14.16;63.03;100265.63;5063841;28;20028;-73
2022/11/10 09:38:38;;;;;;;58.65;35.40;;;;;;;14.18;62.43;100268.94;5074069;28;20043;-74
2022/11/10 09:41:10;;;;;;;56.83;36.92;;;;;;;14.18;62.27;100261.31;5056940;28;20036;-73
2022/11/10 09:43:45;;;;;;;55.20;36.50;;;;;;;14.37;61.76;100267.66;5073538;28;20062;-74
2022/11/10 09:46:27;;;;;;;56.38;35.25;;;;;;;14.38;62.69;100269.31;5061751;28;20470;-73
2022/11/10 09:48:59;;;;;;;67.40;34.60;;;;;;;14.37;61.96;100262.88;5081947;28;20028;-74
2022/11/10 09:51:30;;;;;;;53.20;35.38;;;;;;;14.20;62.52;100260.16;5053959;28;20040;-72
2022/11/10 09:54:02;;;;;;;63.97;36.42;;;;;;;14.16;62.79;100260.00;5077119;28;20043;-73
2022/11/10 09:56:32;;;;;;;60.90;35.70;;;;;;;14.33;62.58;100256.25;5062012;28;20487;-69
2022/11/10 09:58:58;;;;;;;56.05;35.97;;;;;;;14.58;60.93;100254.44;5087220;28;20782;-70
2022/11/10 10:01:39;;;;;;;67.35;38.83;;;;;;;14.68;60.38;100256.00;5076468;28;20427;-71
2022/11/10 10:04:27;;;;;;;66.38;40.97;;;;;;;14.78;60.25;100257.63;5056130;28;20059;-71
2022/11/10 10:07:14;;;;;;;57.97;36.83;;;;;;;14.91;61.10;100252.84;5089301;28;20024;-70
2022/11/10 10:09:59;;;;;;;53.88;33.53;;;;;;;14.72;61.50;100254.19;5059193;28;20518;-72
2022/11/10 10:12:46;;;;;;;52.70;31.85;;;;;;;14.80;59.48;100234.72;5087461;28;20024;-70
2022/11/10 10:15:17;;;;;;;52.22;33.70;;;;;;;14.91;59.83;100240.78;5073460;28;20114;-71
2022/11/10 10:17:45;;;;;;;58.60;32.58;;;;;;;15.03;60.20;100240.81;5090728;28;20032;-71
2022/11/10 10:20:40;;;;;;;51.20;32.80;;;;;;;15.17;59.64;100237.69;5080622;28;20039;-71
2022/11/10 10:23:14;;;;;;;48.90;31.92;;;;;;;15.24;60.01;100237.94;5081979;28;20101;-70
2022/11/10 10:25:42;;;;;;;44.75;30.45;;;;;;;15.34;58.09;100233.03;5076584;28;20483;-69
2022/11/10 10:28:20;;;;;;;55.92;35.45;;;;;;;15.68;58.01;100225.31;5080002;28;20032;-71
2022/11/10 10:30:46;;;;;;;52.88;34.10;;;;;;;15.53;58.08;100227.66;5066212;28;20032;-69
2022/11/10 10:33:18;;;;;;;56.75;34.70;;;;;;;15.49;57.85;100223.91;5089783;28;20051;-69
2022/11/10 10:35:46;;;;;;;51.83;33.38;;;;;;;15.61;57.03;100222.28;5070107;28;20479;-69
2022/11/10 10:38:43;;;;;;;48.60;34.95;;;;;;;15.77;56.72;100219.59;5075128;28;20514;-68
2022/11/10 10:41:22;;;;;;;53.20;35.78;;;;;;;15.82;56.96;100214.53;5051751;28;20131;-68
2022/11/10 10:43:50;;;;;;;51.03;34.45;;;;;;;15.95;57.50;100209.72;5070480;28;20032;-68
2022/11/10 10:46:19;;;;;;;48.10;33.92;;;;;;;16.02;56.41;100216.78;5068348;28;20119;-70
2022/11/10 10:48:44;;;;;;;51.30;33.30;;;;;;;15.83;56.49;100204.88;5064301;28;20028;-70
2022/11/10 10:51:10;;;;;;;59.75;35.90;;;;;;;15.97;56.25;100203.72;5069666;28;20529;-69
2022/11/10 10:53:47;;;;;;;60.38;35.72;;;;;;;16.31;56.83;100201.56;5074040;28;20035;-67
2022/11/10 10:56:18;;;;;;;56.58;37.03;;;;;;;15.93;56.39;100195.16;5087590;28;20034;-68
2022/11/10 10:58:54;;;;;;;;;;;;;;;16.07;56.21;100202.41;5073800;28;20023;-67
2022/11/10 11:01:30;;;;;;;65.35;37.95;;;;;;;16.08;57.18;100198.41;5058168;28;19916;-68
2022/11/10 11:03:57;;;;;;;65.97;39.97;;;;;;;15.95;57.79;100198.44;5091576;28;20040;-68
2022/11/10 11:06:33;;;;;;;61.65;37.20;;;;;;;15.97;57.39;100198.09;5073235;28;20513;-68
2022/11/10 11:09:00;;;;;;;53.72;37.60;;;;;;;16.01;56.87;100187.72;5077644;28;20029;-67
2022/11/10 11:11:37;;;;;;;60.70;37.10;;;;;;;16.00;56.76;100186.94;5077852;28;20028;-68
2022/11/10 11:14:13;;;;;;;61.47;36.85;;;;;;;16.35;55.56;100181.88;5068984;28;20020;-68
2022/11/10 11:16:48;;;;;;;55.28;37.22;;;;;;;16.35;55.03;100185.56;5073950;28;20055;-68
2022/11/10 11:19:14;;;;;;;63.90;33.40;;;;;;;16.29;55.31;100181.34;5077425;28;20058;-68
2022/11/10 11:22:01;;;;;;;57.63;35.88;;;;;;;16.06;55.89;100189.50;5074866;28;20032;-68
2022/11/10 11:25:02;;;;;;;48.72;34.33;;;;;;;16.22;56.04;100179.09;5081313;28;20030;-67
2022/11/10 11:27:45;;;;;;;50.53;33.33;;;;;;;16.23;55.90;100179.94;5051224;28;20071;-68
2022/11/10 11:30:22;;;;;;;46.88;30.33;;;;;;;16.22;55.32;100178.28;5069659;28;20035;-68
2022/11/10 11:33:18;;;;;;;49.25;32.20;;;;;;;16.26;55.79;100170.75;5077386;28;20029;-68
2022/11/10 11:35:56;;;;;;;46.72;31.83;;;;;;;16.42;53.88;100174.47;5073863;28;20025;-69